Time;durP1;ratioP1;P1;durP2;ratioP2;P2;SDS_P1;SDS_P2;PMS_P1;PMS_P2;Temp;Humidity;BMP_temperature;BMP_pressure;BME280_temperature;BME280_humidity;BME280_pressure;Samples;Min_cycle;Max_cycle;Signal;HPM_P1;HPM_P2
2023/04/02 00:02:19;;;;;;;11.32;1.65;;;0.60;99.90;;;;;;4891276;29;20167;-64
2023/04/02 00:05:30;;;;;;;6.75;1.73;;;0.60;99.90;;;;;;4887370;29;20656;-63
2023/04/02 00:08:01;;;;;;;12.90;2.60;;;0.60;99.90;;;;;;4888798;29;20116;-62
2023/04/02 00:10:47;;;;;;;6.90;1.67;;;0.60;99.90;;;;;;4890510;29;20052;-62
2023/04/02 00:13:30;;;;;;;10.30;2.33;;;0.60;99.90;;;;;;4890663;29;20055;-65
2023/04/02 00:15:58;;;;;;;7.30;1.33;;;0.60;99.90;;;;;;4888687;29;20143;-61
2023/04/02 00:18:26;;;;;;;13.27;2.10;;;0.60;99.90;;;;;;4889897;29;20108;-67
2023/04/02 00:21:17;;;;;;;9.88;1.80;;;0.60;99.90;;;;;;4873325;29;20083;-66
2023/04/02 00:23:44;;;;;;;9.82;2.72;;;0.60;99.90;;;;;;4885586;29;20063;-67
2023/04/02 00:26:24;;;;;;;4.47;1.80;;;0.60;99.90;;;;;;4890279;29;20690;-61
2023/04/02 00:28:51;;;;;;;11.50;2.45;;;0.60;99.90;;;;;;4890160;29;20053;-65
2023/04/02 00:31:19;;;;;;;3.90;1.65;;;0.60;99.90;;;;;;4887471;29;20168;-64
2023/04/02 00:33:48;;;;;;;9.27;3.42;;;0.60;99.90;;;;;;4889953;29;20045;-64
2023/04/02 00:36:18;;;;;;;9.45;2.60;;;0.60;99.90;;;;;;4886277;29;20111;-65
2023/04/02 00:38:46;;;;;;;8.82;2.30;;;0.60;99.90;;;;;;4888796;29;20715;-66
2023/04/02 00:41:22;;;;;;;7.03;2.47;;;0.60;99.90;;;;;;4891280;29;20090;-62
2023/04/02 00:43:50;;;;;;;8.68;2.05;;;0.60;99.90;;;;;;4888501;29;20128;-65
2023/04/02 00:46:22;;;;;;;21.70;3.83;;;0.60;99.90;;;;;;4889849;29;20063;-61
2023/04/02 00:48:58;;;;;;;9.13;3.40;;;0.50;99.90;;;;;;4889586;29;20069;-63
2023/04/02 00:51:31;;;;;;;10.02;3.08;;;0.50;99.90;;;;;;4883610;29;20048;-65
2023/04/02 00:54:02;;;;;;;8.32;1.67;;;0.50;99.90;;;;;;4893001;29;20048;-64
2023/04/02 00:56:42;;;;;;;11.10;2.83;;;0.60;99.90;;;;;;4891831;29;20062;-64
2023/04/02 00:59:29;;;;;;;8.85;1.52;;;0.50;99.90;;;;;;4888762;29;20051;-62
2023/04/02 01:02:25;;;;;;;4.75;1.83;;;0.60;99.90;;;;;;4886282;29;20140;-63
2023/04/02 01:04:58;;;;;;;6.65;1.92;;;0.50;99.90;;;;;;4888430;29;20055;-62
2023/04/02 01:07:31;;;;;;;4.97;1.83;;;0.60;99.90;;;;;;4888550;29;20044;-61
2023/04/02 01:10:16;;;;;;;8.50;2.38;;;0.60;99.90;;;;;;4890155;29;20047;-62
2023/04/02 01:13:01;;;;;;;7.93;2.55;;;0.50;99.90;;;;;;4886524;29;20143;-61
2023/04/02 01:15:37;;;;;;;10.48;2.33;;;0.50;99.90;;;;;;4883799;29;20041;-61
2023/04/02 01:18:17;;;;;;;14.85;2.15;;;0.50;99.90;;;;;;4887738;29;20056;-62
2023/04/02 01:21:05;;;;;;;5.53;1.70;;;0.50;99.90;;;;;;4883077;29;20057;-61
2023/04/02 01:23:51;;;;;;;7.13;1.60;;;0.50;99.90;;;;;;4887064;29;20454;-65
2023/04/02 01:26:35;;;;;;;8.98;1.52;;;0.60;99.90;;;;;;4886726;29;20052;-64
2023/04/02 01:29:16;;;;;;;4.65;1.35;;;0.60;99.90;;;;;;4888197;29;20124;-61
2023/04/02 01:31:44;;;;;;;;;;;0.60;99.90;;;;;;4887965;29;20048;-63
2023/04/02 01:34:14;;;;;;;9.55;1.60;;;0.60;99.90;;;;;;4886075;29;20157;-61
2023/04/02 01:37:03;;;;;;;14.63;2.50;;;0.60;99.90;;;;;;4885856;29;20473;-62
2023/04/02 01:39:59;;;;;;;10.35;2.13;;;0.60;99.90;;;;;;4889847;29;20096;-63
2023/04/02 01:42:45;;;;;;;12.90;2.25;;;0.60;99.90;;;;;;4875607;29;20083;-61
2023/04/02 01:45:15;;;;;;;9.68;2.15;;;0.60;99.90;;;;;;4887455;29;20056;-62
2023/04/02 01:47:43;;;;;;;;;;;0.70;99.90;;;;;;4884435;29;20052;-63
2023/04/02 01:50:30;;;;;;;7.97;2.08;;;0.60;99.90;;;;;;4886962;29;19927;-61
2023/04/02 01:53:01;;;;;;;12.20;2.15;;;0.70;99.90;;;;;;4872289;29;20528;-60
2023/04/02 01:55:33;;;;;;;6.53;2.72;;;0.70;99.90;;;;;;4885268;29;20163;-61
2023/04/02 01:58:02;;;;;;;6.15;1.63;;;0.70;99.90;;;;;;4880562;29;20127;-61
2023/04/02 02:00:31;;;;;;;4.00;1.73;;;0.70;99.90;;;;;;4889707;29;20079;-65
2023/04/02 02:03:00;;;;;;;8.57;3.42;;;0.70;99.90;;;;;;4886191;29;20071;-62
2023/04/02 02:05:28;;;;;;;7.68;2.70;;;0.70;99.90;;;;;;4889391;29;20092;-64
2023/04/02 02:07:56;;;;;;;7.65;2.03;;;0.60;99.90;;;;;;4874494;29;20076;-63
2023/04/02 02:10:37;;;;;;;13.07;2.70;;;0.60;99.90;;;;;;4888393;29;20045;-62
2023/04/02 02:13:05;;;;;;;5.28;1.48;;;0.60;99.90;;;;;;4897473;29;20040;-60
2023/04/02 02:15:34;;;;;;;9.50;2.83;;;0.60;99.90;;;;;;4893952;29;20053;-64
2023/04/02 02:18:04;;;;;;;11.75;3.45;;;0.70;99.90;;;;;;4893154;29;21820;-64
2023/04/02 02:20:33;;;;;;;8.57;2.50;;;0.60;99.90;;;;;;4892374;29;20052;-64
2023/04/02 02:23:02;;;;;;;6.80;1.88;;;0.60;99.90;;;;;;4892625;29;20483;-61
2023/04/02 02:25:32;;;;;;;15.17;2.03;;;0.60;99.90;;;;;;4889127;29;20057;-62
2023/04/02 02:28:00;;;;;;;;;;;0.60;99.90;;;;;;4893029;29;20072;-64
2023/04/02 02:30:30;;;;;;;10.13;1.90;;;0.60;99.90;;;;;;4889877;29;19927;-64
2023/04/02 02:33:16;;;;;;;;;;;0.60;99.90;;;;;;4889903;29;20057;-63
2023/04/02 02:35:55;;;;;;;5.80;1.48;;;0.70;99.90;;;;;;4884866;29;20335;-64
2023/04/02 02:38:28;;;;;;;6.70;1.65;;;0.70;99.90;;;;;;4886848;29;20135;-62
2023/04/02 02:41:15;;;;;;;6.40;1.75;;;0.70;99.90;;;;;;4881859;29;20048;-61
2023/04/02 02:43:50;;;;;;;4.43;1.80;;;0.60;99.90;;;;;;4887166;29;20044;-63
2023/04/02 02:46:20;;;;;;;9.80;2.22;;;0.60;99.90;;;;;;4892008;29;20059;-61
2023/04/02 02:48:50;;;;;;;4.97;2.35;;;0.60;99.90;;;;;;4890204;29;20076;-64
2023/04/02 02:51:25;;;;;;;7.03;1.60;;;0.60;99.90;;;;;;4892782;29;20483;-62
2023/04/02 02:53:56;;;;;;;2.40;1.10;;;0.60;99.90;;;;;;4881680;29;20503;-61
2023/04/02 02:56:23;;;;;;;4.68;1.52;;;0.60;99.90;;;;;;4882010;29;20523;-61
2023/04/02 02:58:52;;;;;;;11.57;2.65;;;0.60;99.90;;;;;;4893261;29;20083;-66
2023/04/02 03:01:23;;;;;;;4.88;2.28;;;0.60;99.90;;;;;;4886556;29;20681;-64
2023/04/02 03:03:53;;;;;;;3.70;2.15;;;0.60;99.90;;;;;;4891462;29;20040;-62
2023/04/02 03:06:23;;;;;;;8.20;1.83;;;0.60;99.90;;;;;;4891844;29;20057;-60
2023/04/02 03:09:01;;;;;;;9.25;2.17;;;0.60;99.90;;;;;;4892647;29;20087;-60
2023/04/02 03:11:39;;;;;;;5.00;1.65;;;0.60;99.90;;;;;;4879345;29;20088;-65
2023/04/02 03:14:36;;;;;;;9.02;2.10;;;0.60;99.90;;;;;;4877953;29;20080;-63
2023/04/02 03:17:17;;;;;;;4.72;1.38;;;0.60;99.90;;;;;;4887090;29;20059;-60
2023/04/02 03:19:56;;;;;;;4.20;2.05;;;0.60;99.90;;;;;;4889265;29;20076;-60
2023/04/02 03:22:36;;;;;;;6.38;1.33;;;0.60;99.90;;;;;;4889677;29;20522;-62
2023/04/02 03:25:11;;;;;;;;;;;0.60;99.90;;;;;;4892263;29;20147;-61
2023/04/02 03:27:43;;;;;;;4.25;1.73;;;0.60;99.90;;;;;;4885590;29;20473;-64
2023/04/02 03:30:42;;;;;;;8.10;2.03;;;0.60;99.90;;;;;;4887234;29;20056;-67
2023/04/02 03:33:20;;;;;;;7.22;2.00;;;0.60;99.90;;;;;;4872226;29;20152;-62
2023/04/02 03:36:18;;;;;;;8.82;1.92;;;0.50;99.90;;;;;;4889252;29;20437;-66
2023/04/02 03:38:51;;;;;;;11.77;2.08;;;0.50;99.90;;;;;;4858795;29;20475;-62
2023/04/02 03:41:33;;;;;;;3.35;1.95;;;0.50;99.90;;;;;;4874452;29;20048;-62
2023/04/02 03:44:06;;;;;;;3.75;1.40;;;0.50;99.90;;;;;;4872992;29;20237;-61
2023/04/02 03:46:39;;;;;;;8.15;1.73;;;0.50;99.90;;;;;;4872631;29;20080;-64
2023/04/02 03:49:17;;;;;;;7.30;1.98;;;0.50;99.90;;;;;;4875575;29;20045;-62
2023/04/02 03:52:12;;;;;;;4.47;1.40;;;0.50;99.90;;;;;;4887633;29;20056;-61
2023/04/02 03:54:41;;;;;;;4.07;1.27;;;0.40;99.90;;;;;;4873348;29;20516;-63
2023/04/02 03:57:41;;;;;;;10.30;2.70;;;0.40;99.90;;;;;;4886972;29;20063;-63
2023/04/02 04:00:18;;;;;;;11.77;2.17;;;0.40;99.90;;;;;;4885153;29;20052;-61
2023/04/02 04:02:51;;;;;;;7.15;1.85;;;0.40;99.90;;;;;;4889629;29;20060;-63
2023/04/02 04:05:33;;;;;;;8.85;1.88;;;0.40;99.90;;;;;;4871782;29;20143;-62
2023/04/02 04:08:20;;;;;;;5.82;1.52;;;0.30;99.90;;;;;;4888500;29;20045;-67
2023/04/02 04:10:51;;;;;;;3.70;2.67;;;0.30;99.90;;;;;;4887598;29;20163;-65
2023/04/02 04:13:30;;;;;;;5.72;1.60;;;0.30;99.90;;;;;;4889159;29;20056;-62
2023/04/02 04:16:03;;;;;;;5.50;2.05;;;0.30;99.90;;;;;;4888320;29;20052;-62
2023/04/02 04:18:46;;;;;;;6.20;1.45;;;0.30;99.90;;;;;;4885342;29;20446;-63
2023/04/02 04:21:28;;;;;;;3.03;1.73;;;0.40;99.90;;;;;;4888021;29;20052;-68
2023/04/02 04:24:03;;;;;;;5.35;1.45;;;0.40;99.90;;;;;;4886750;29;20056;-61
2023/04/02 04:26:55;;;;;;;5.15;2.03;;;0.40;99.90;;;;;;4887369;29;20056;-63
2023/04/02 04:29:53;;;;;;;4.15;2.20;;;0.40;99.90;;;;;;4836206;29;20060;-61
2023/04/02 04:32:31;;;;;;;8.30;2.55;;;0.40;99.90;;;;;;4885205;29;20053;-63
2023/04/02 04:35:29;;;;;;;7.65;3.13;;;0.40;99.90;;;;;;4887136;29;20052;-65
2023/04/02 04:38:13;;;;;;;7.15;1.63;;;0.40;99.90;;;;;;4883642;29;20120;-61
2023/04/02 04:40:52;;;;;;;7.63;1.58;;;0.50;99.90;;;;;;4883672;29;20140;-62
2023/04/02 04:43:43;;;;;;;3.85;2.10;;;0.50;99.90;;;;;;4885523;29;20053;-66
2023/04/02 04:46:28;;;;;;;9.02;2.25;;;0.50;99.90;;;;;;4885441;29;20052;-62
2023/04/02 04:48:58;;;;;;;8.25;1.77;;;0.50;99.90;;;;;;4878942;29;20064;-63
2023/04/02 04:51:44;;;;;;;11.60;2.75;;;0.50;99.90;;;;;;4880894;29;20052;-64
2023/04/02 04:54:13;;;;;;;9.57;1.65;;;0.50;99.90;;;;;;4886581;29;20037;-63
2023/04/02 04:56:48;;;;;;;7.13;2.15;;;0.60;99.90;;;;;;4885472;29;20048;-63
2023/04/02 04:59:31;;;;;;;6.57;2.15;;;0.60;99.90;;;;;;4873937;29;20555;-63
2023/04/02 05:02:11;;;;;;;7.30;2.00;;;0.60;99.90;;;;;;4885786;29;20111;-62
2023/04/02 05:04:47;;;;;;;5.97;2.00;;;0.60;99.90;;;;;;4887239;29;20084;-63
2023/04/02 05:07:43;;;;;;;9.50;2.45;;;0.60;99.90;;;;;;4871878;29;20515;-61
2023/04/02 05:10:35;;;;;;;12.05;2.20;;;0.70;99.90;;;;;;4867489;29;20063;-63
2023/04/02 05:13:13;;;;;;;2.40;1.65;;;0.70;99.90;;;;;;4886126;29;20104;-63
2023/04/02 05:15:56;;;;;;;9.85;3.53;;;0.70;99.90;;;;;;4884929;29;20128;-69
2023/04/02 05:18:40;;;;;;;6.10;1.95;;;0.70;99.90;;;;;;4889263;29;20104;-62
2023/04/02 05:21:14;;;;;;;5.00;1.60;;;0.80;99.90;;;;;;4886352;29;20499;-61
2023/04/02 05:24:22;;;;;;;2.65;1.23;;;0.80;99.90;;;;;;4886291;29;20075;-63
2023/04/02 05:26:52;;;;;;;4.65;1.95;;;0.80;99.90;;;;;;4842551;29;20382;-60
2023/04/02 05:29:35;;;;;;;6.22;2.80;;;0.80;99.90;;;;;;4867632;29;20055;-61
2023/04/02 05:32:13;;;;;;;4.90;1.83;;;0.90;99.90;;;;;;4888254;29;20063;-61
2023/04/02 05:34:45;;;;;;;9.98;2.70;;;0.90;99.90;;;;;;4868607;29;20056;-63
2023/04/02 05:37:21;;;;;;;3.97;1.50;;;1.00;99.90;;;;;;4885000;29;20496;-61
2023/04/02 05:40:05;;;;;;;5.90;1.77;;;1.00;99.90;;;;;;4886453;29;20551;-62
2023/04/02 05:42:36;;;;;;;2.75;1.10;;;1.10;99.90;;;;;;4882631;29;20045;-61
2023/04/02 05:45:17;;;;;;;2.72;1.35;;;1.20;99.90;;;;;;4884848;29;20084;-68
2023/04/02 05:47:48;;;;;;;5.55;1.20;;;1.20;99.90;;;;;;4882119;29;20056;-62
2023/04/02 05:50:19;;;;;;;6.60;1.30;;;1.30;99.90;;;;;;4886465;29;20412;-62
2023/04/02 05:52:53;;;;;;;7.00;1.08;;;1.30;99.90;;;;;;4886735;29;20151;-62
2023/04/02 05:55:26;;;;;;;4.28;1.10;;;1.40;99.90;;;;;;4868168;29;20147;-60
2023/04/02 05:58:06;;;;;;;7.05;1.75;;;1.40;99.90;;;;;;4887195;29;20060;-62
2023/04/02 06:01:01;;;;;;;2.80;0.77;;;1.50;99.90;;;;;;4886160;29;20125;-64
2023/04/02 06:03:50;;;;;;;7.38;1.60;;;1.60;99.90;;;;;;4883767;29;20061;-65
2023/04/02 06:06:42;;;;;;;4.55;2.25;;;1.60;99.90;;;;;;4881830;29;20048;-60
2023/04/02 06:09:26;;;;;;;4.20;2.63;;;1.70;99.90;;;;;;4871138;29;20053;-60
2023/04/02 06:12:22;;;;;;;4.30;1.00;;;1.70;99.90;;;;;;4882384;29;21935;-61
2023/04/02 06:14:50;;;;;;;3.35;1.02;;;1.70;99.90;;;;;;4886189;29;20061;-63
2023/04/02 06:17:19;;;;;;;3.55;0.98;;;1.80;99.90;;;;;;4885396;29;20065;-60
2023/04/02 06:19:47;;;;;;;3.88;1.50;;;1.90;99.90;;;;;;4884398;29;20049;-60
2023/04/02 06:22:35;;;;;;;9.07;1.17;;;1.90;99.90;;;;;;4886897;29;20116;-63
2023/04/02 06:25:16;;;;;;;4.82;1.08;;;1.90;99.90;;;;;;4887017;29;20518;-60
2023/04/02 06:27:45;;;;;;;3.90;1.27;;;2.00;99.90;;;;;;4880701;29;20040;-61
2023/04/02 06:30:22;;;;;;;4.32;1.33;;;2.00;99.90;;;;;;4887816;29;20045;-61
2023/04/02 06:32:50;;;;;;;4.68;1.30;;;2.00;99.90;;;;;;4882737;29;20385;-64
2023/04/02 06:35:19;;;;;;;3.70;1.02;;;2.10;99.90;;;;;;4867050;29;20068;-64
2023/04/02 06:37:58;;;;;;;4.88;1.58;;;2.10;99.90;;;;;;4881528;29;20044;-66
2023/04/02 06:40:32;;;;;;;5.32;1.83;;;2.10;99.90;;;;;;4883673;29;20059;-61
2023/04/02 06:43:25;;;;;;;4.82;1.00;;;2.20;99.90;;;;;;4885032;29;20499;-60
2023/04/02 06:46:17;;;;;;;4.60;1.20;;;2.20;99.90;;;;;;4882507;29;20411;-62
2023/04/02 06:49:10;;;;;;;4.38;1.67;;;2.30;99.90;;;;;;4886800;29;20447;-60
2023/04/02 06:51:39;;;;;;;4.55;1.52;;;2.30;99.90;;;;;;4865006;29;20052;-66
2023/04/02 06:54:13;;;;;;;6.13;2.72;;;2.30;99.90;;;;;;4884658;29;20887;-60
2023/04/02 06:56:53;;;;;;;9.75;1.60;;;2.30;99.90;;;;;;4872177;29;20071;-63
2023/04/02 06:59:26;;;;;;;6.47;1.02;;;2.40;99.90;;;;;;4880600;29;20059;-60
2023/04/02 07:02:02;;;;;;;5.03;1.92;;;2.40;99.90;;;;;;4871045;29;20048;-64
2023/04/02 07:04:30;;;;;;;7.88;1.35;;;2.50;99.90;;;;;;4885661;29;20059;-61
2023/04/02 07:06:57;;;;;;;10.80;1.77;;;2.50;99.90;;;;;;4887759;29;20160;-61
2023/04/02 07:09:28;;;;;;;4.60;1.02;;;2.50;99.90;;;;;;4880260;29;20056;-61
2023/04/02 07:11:58;;;;;;;3.85;1.05;;;2.60;99.90;;;;;;4883555;29;20056;-62
2023/04/02 07:14:25;;;;;;;2.70;0.60;;;2.60;99.90;;;;;;4888969;29;20057;-62
2023/04/02 07:16:52;;;;;;;5.53;1.20;;;2.70;99.90;;;;;;4888933;29;20047;-61
2023/04/02 07:19:21;;;;;;;1.30;0.90;;;2.70;99.90;;;;;;4871922;29;20140;-61
2023/04/02 07:21:53;;;;;;;4.97;0.88;;;2.80;99.90;;;;;;4886426;29;20060;-63
2023/04/02 07:24:21;;;;;;;4.35;1.88;;;2.80;99.90;;;;;;4867243;29;20052;-64
2023/04/02 07:26:48;;;;;;;2.55;1.23;;;2.80;99.90;;;;;;4889445;29;20055;-61
2023/04/02 07:29:16;;;;;;;7.57;1.10;;;2.80;99.90;;;;;;4889119;29;20253;-65
2023/04/02 07:31:43;;;;;;;2.83;0.98;;;2.90;99.90;;;;;;4887494;29;20533;-60
2023/04/02 07:34:10;;;;;;;3.08;0.95;;;2.90;99.90;;;;;;4888146;29;20792;-62
2023/04/02 07:36:37;;;;;;;5.43;1.00;;;2.90;99.90;;;;;;4887357;29;20461;-64
2023/04/02 07:39:04;;;;;;;7.10;2.33;;;3.00;99.90;;;;;;4887427;29;20044;-64
2023/04/02 07:41:31;;;;;;;2.83;0.80;;;3.00;99.90;;;;;;4884802;29;20495;-65
2023/04/02 07:43:57;;;;;;;0.85;0.52;;;3.00;99.90;;;;;;4888483;29;20144;-63
2023/04/02 07:46:25;;;;;;;3.40;1.45;;;3.10;99.90;;;;;;4885617;29;20052;-63
2023/04/02 07:48:52;;;;;;;3.20;0.60;;;3.10;99.90;;;;;;4888408;29;20079;-60
2023/04/02 07:51:25;;;;;;;3.47;1.05;;;3.10;99.90;;;;;;4887866;29;20060;-62
2023/04/02 07:53:55;;;;;;;6.35;2.58;;;3.20;99.90;;;;;;4886801;29;20048;-61
2023/04/02 07:56:24;;;;;;;5.13;0.73;;;3.20;99.90;;;;;;4884571;29;20131;-63
2023/04/02 07:58:51;;;;;;;4.57;1.05;;;3.30;99.90;;;;;;4887617;29;20053;-62
2023/04/02 08:01:24;;;;;;;5.32;1.40;;;3.30;99.90;;;;;;4884507;29;20053;-61
2023/04/02 08:03:56;;;;;;;3.33;0.70;;;3.30;99.90;;;;;;4879346;29;20533;-60
2023/04/02 08:06:24;;;;;;;5.10;1.48;;;3.40;99.90;;;;;;4887913;29;20068;-61
2023/04/02 08:08:51;;;;;;;6.97;3.00;;;3.50;99.90;;;;;;4878023;29;20498;-61
2023/04/02 08:11:18;;;;;;;8.77;2.47;;;3.50;99.90;;;;;;4886821;29;20052;-65
2023/04/02 08:13:45;;;;;;;6.93;1.10;;;3.60;99.90;;;;;;4885652;29;20140;-62
2023/04/02 08:16:12;;;;;;;5.95;1.23;;;3.60;99.90;;;;;;4885783;29;20148;-63
2023/04/02 08:18:40;;;;;;;3.75;1.63;;;3.60;99.90;;;;;;4885540;29;20156;-62
2023/04/02 08:21:08;;;;;;;4.97;1.13;;;3.70;99.90;;;;;;4884291;29;20726;-66
2023/04/02 08:23:36;;;;;;;3.38;2.03;;;3.70;99.90;;;;;;4885284;29;20574;-61
2023/04/02 08:26:04;;;;;;;11.18;1.88;;;3.70;99.90;;;;;;4886082;29;20414;-62
2023/04/02 08:28:31;;;;;;;6.22;1.45;;;3.80;99.90;;;;;;4886054;29;20048;-61
2023/04/02 08:30:58;;;;;;;11.02;1.48;;;3.70;99.90;;;;;;4887088;29;20053;-63
2023/04/02 08:33:25;;;;;;;4.07;0.95;;;3.60;99.90;;;;;;4885542;29;20443;-62
2023/04/02 08:35:52;;;;;;;6.72;1.17;;;3.50;99.90;;;;;;4887436;29;20048;-65
2023/04/02 08:38:20;;;;;;;6.45;1.50;;;3.50;99.90;;;;;;4886128;29;20056;-65
2023/04/02 08:40:50;;;;;;;6.47;2.30;;;3.50;99.90;;;;;;4886977;29;20049;-62
2023/04/02 08:43:23;;;;;;;4.72;1.23;;;3.50;99.90;;;;;;4886459;29;20132;-60
2023/04/02 08:46:15;;;;;;;6.55;1.70;;;3.50;99.90;;;;;;4887063;29;20487;-60
2023/04/02 08:48:46;;;;;;;7.03;1.42;;;3.50;99.90;;;;;;4886840;29;20053;-62
2023/04/02 08:51:23;;;;;;;7.60;1.85;;;3.50;99.90;;;;;;4886033;29;20519;-66
2023/04/02 08:53:58;;;;;;;4.72;1.52;;;3.40;99.90;;;;;;4886698;29;20060;-62
2023/04/02 08:56:32;;;;;;;4.63;0.75;;;3.40;99.90;;;;;;4884767;29;20064;-69
2023/04/02 08:59:07;;;;;;;2.88;1.17;;;3.30;99.90;;;;;;4889436;29;20142;-63
2023/04/02 09:01:38;;;;;;;9.10;1.30;;;3.40;99.90;;;;;;4883052;29;20059;-61
2023/04/02 09:04:14;;;;;;;4.00;1.27;;;3.50;99.90;;;;;;4884060;29;20294;-68
2023/04/02 09:06:42;;;;;;;6.93;1.55;;;3.60;99.90;;;;;;4885453;29;20531;-62
2023/04/02 09:09:12;;;;;;;5.50;2.03;;;3.60;99.90;;;;;;4887498;29;20044;-64
2023/04/02 09:12:02;;;;;;;8.50;1.60;;;3.50;99.90;;;;;;4884420;29;20482;-60
2023/04/02 09:14:40;;;;;;;5.63;1.90;;;3.50;99.90;;;;;;4885651;29;20407;-62
2023/04/02 09:17:18;;;;;;;3.60;0.85;;;3.50;99.90;;;;;;4880392;29;20055;-65
2023/04/02 09:19:56;;;;;;;4.07;1.23;;;3.50;99.90;;;;;;4884521;29;20051;-60
2023/04/02 09:22:26;;;;;;;5.25;2.05;;;3.40;99.90;;;;;;4884504;29;20454;-61
2023/04/02 09:24:59;;;;;;;5.32;1.02;;;3.40;99.90;;;;;;4885453;29;20076;-63
2023/04/02 09:27:31;;;;;;;10.40;2.72;;;3.40;99.90;;;;;;4882665;29;20056;-61
2023/04/02 09:30:23;;;;;;;7.70;1.55;;;3.50;99.90;;;;;;4886727;29;20049;-62
2023/04/02 09:32:54;;;;;;;4.60;1.23;;;3.60;99.90;;;;;;4885998;29;20077;-63
2023/04/02 09:35:24;;;;;;;6.40;1.17;;;3.70;99.90;;;;;;4884183;29;20482;-63
2023/04/02 09:38:20;;;;;;;7.05;1.20;;;3.70;99.90;;;;;;4884504;29;20802;-62
2023/04/02 09:41:17;;;;;;;3.13;1.30;;;3.60;99.90;;;;;;4891333;29;20075;-66
2023/04/02 09:43:45;;;;;;;4.70;1.50;;;3.70;99.90;;;;;;4882796;29;20052;-60
2023/04/02 09:46:11;;;;;;;2.75;1.15;;;3.70;99.90;;;;;;4884692;29;20148;-60
2023/04/02 09:49:02;;;;;;;5.70;1.92;;;3.70;99.90;;;;;;4887094;29;20120;-61
2023/04/02 09:51:32;;;;;;;;;;;3.70;99.90;;;;;;4881336;29;20045;-63
2023/04/02 09:54:01;;;;;;;3.33;1.15;;;3.70;99.90;;;;;;4884218;29;19983;-61
2023/04/02 09:56:34;;;;;;;6.28;1.58;;;3.70;99.90;;;;;;4880933;29;20180;-69
2023/04/02 09:59:02;;;;;;;8.27;1.55;;;3.70;99.90;;;;;;4885291;29;20053;-65
2023/04/02 10:01:35;;;;;;;8.20;2.40;;;3.70;99.90;;;;;;4882266;29;20993;-61
2023/04/02 10:04:03;;;;;;;5.82;1.30;;;3.80;99.90;;;;;;4883840;29;20060;-64
2023/04/02 10:06:32;;;;;;;8.57;1.67;;;3.90;99.90;;;;;;4885751;29;20194;-64
2023/04/02 10:09:47;;;;;;;3.97;1.45;;;3.90;99.90;;;;;;4885133;29;20415;-63
2023/04/02 10:12:15;;;;;;;4.93;1.52;;;3.90;99.90;;;;;;4866901;29;20487;-63
2023/04/02 10:14:48;;;;;;;5.18;1.13;;;3.90;99.90;;;;;;4888098;29;20052;-63
2023/04/02 10:17:20;;;;;;;3.60;1.15;;;3.80;99.90;;;;;;4882370;29;20059;-61
2023/04/02 10:19:52;;;;;;;6.70;1.27;;;3.80;99.90;;;;;;4880310;29;20048;-67
2023/04/02 10:22:21;;;;;;;7.82;1.45;;;3.80;99.90;;;;;;4879054;29;20136;-64
2023/04/02 10:24:49;;;;;;;5.95;1.67;;;3.80;99.90;;;;;;4882191;29;20057;-66
2023/04/02 10:27:43;;;;;;;12.23;1.58;;;3.80;99.90;;;;;;4887279;29;20052;-62
2023/04/02 10:30:22;;;;;;;2.95;1.30;;;3.80;99.90;;;;;;4883942;29;20103;-64
2023/04/02 10:32:58;;;;;;;6.10;1.60;;;3.90;99.90;;;;;;4888469;29;20144;-62
2023/04/02 10:35:58;;;;;;;4.53;1.92;;;3.90;99.90;;;;;;4889529;29;20056;-61
2023/04/02 10:38:41;;;;;;;4.88;1.98;;;4.00;99.90;;;;;;4890667;29;20053;-69
2023/04/02 10:41:23;;;;;;;10.13;1.77;;;4.10;99.90;;;;;;4891668;29;20148;-63
2023/04/02 10:43:50;;;;;;;4.22;1.25;;;4.10;99.90;;;;;;4888823;29;20055;-62
2023/04/02 10:46:42;;;;;;;5.55;1.10;;;4.20;99.90;;;;;;4890036;29;20048;-62
2023/04/02 10:49:38;;;;;;;2.90;2.17;;;4.20;99.90;;;;;;4892262;29;20074;-63
2023/04/02 10:52:18;;;;;;;4.32;1.85;;;4.10;99.90;;;;;;4887459;29;20063;-68
2023/04/02 10:54:53;;;;;;;8.52;1.25;;;4.10;99.90;;;;;;4888684;29;20104;-60
2023/04/02 10:57:43;;;;;;;8.02;1.60;;;4.00;99.90;;;;;;4888625;29;20101;-66
2023/04/02 11:00:10;;;;;;;5.22;1.33;;;4.10;99.90;;;;;;4890934;29;20047;-65
2023/04/02 11:02:43;;;;;;;4.68;1.48;;;4.10;99.90;;;;;;4871982;29;20057;-67
2023/04/02 11:05:39;;;;;;;5.80;2.78;;;4.10;99.90;;;;;;4887070;29;20061;-61
2023/04/02 11:08:10;;;;;;;10.45;1.67;;;4.10;99.90;;;;;;4887542;29;20433;-65
2023/04/02 11:10:42;;;;;;;6.00;1.50;;;4.20;99.90;;;;;;4890877;29;20058;-63
2023/04/02 11:13:21;;;;;;;11.35;3.30;;;4.20;99.90;;;;;;4892563;29;20516;-62
2023/04/02 11:15:49;;;;;;;5.50;1.52;;;4.10;99.90;;;;;;4887082;29;20095;-63
2023/04/02 11:18:23;;;;;;;5.07;1.40;;;4.20;99.90;;;;;;4891325;29;20048;-66
2023/04/02 11:20:50;;;;;;;3.92;1.58;;;4.20;99.90;;;;;;4888942;29;20048;-64
2023/04/02 11:23:18;;;;;;;5.40;1.48;;;4.20;99.90;;;;;;4891037;29;20048;-61
2023/04/02 11:25:46;;;;;;;2.58;1.70;;;4.30;99.90;;;;;;4885508;29;20142;-64
2023/04/02 11:28:30;;;;;;;9.43;2.58;;;4.30;99.90;;;;;;4889860;29;20128;-66
2023/04/02 11:30:57;;;;;;;7.05;1.30;;;4.20;99.90;;;;;;4888376;29;20060;-67
2023/04/02 11:33:32;;;;;;;4.47;0.95;;;4.30;99.90;;;;;;4886866;29;20086;-61
2023/04/02 11:36:53;;;;;;;6.07;1.60;;;4.30;99.90;;;;;;4891411;29;20608;-63
2023/04/02 11:39:53;;;;;;;3.35;0.93;;;4.40;99.90;;;;;;4887368;29;20048;-62
2023/04/02 11:42:35;;;;;;;4.47;1.08;;;4.40;99.90;;;;;;4887253;29;20091;-63
2023/04/02 11:45:23;;;;;;;10.85;3.25;;;4.40;99.90;;;;;;4888456;29;20051;-65
2023/04/02 11:47:59;;;;;;;5.63;1.05;;;4.40;99.90;;;;;;4889768;29;20050;-61
2023/04/02 11:50:36;;;;;;;12.63;1.50;;;4.30;99.90;;;;;;4891025;29;20051;-63
2023/04/02 11:53:11;;;;;;;7.32;2.95;;;4.30;99.90;;;;;;4890217;29;20442;-64
2023/04/02 11:55:44;;;;;;;4.93;1.17;;;4.30;99.90;;;;;;4885161;29;20060;-63
2023/04/02 11:58:33;;;;;;;8.43;1.98;;;4.30;99.90;;;;;;4886478;29;20459;-62
2023/04/02 12:01:13;;;;;;;6.85;2.78;;;4.40;99.90;;;;;;4887836;29;20426;-60
2023/04/02 12:04:07;;;;;;;4.13;0.90;;;4.40;99.90;;;;;;4885811;29;20555;-65
2023/04/02 12:06:55;;;;;;;6.00;1.15;;;4.50;99.90;;;;;;4886465;29;20082;-66
2023/04/02 12:09:26;;;;;;;4.95;1.25;;;4.50;99.90;;;;;;4886275;29;20446;-62
2023/04/02 12:11:55;;;;;;;4.28;0.88;;;4.50;99.90;;;;;;4887775;29;20139;-60
2023/04/02 12:14:34;;;;;;;3.90;1.35;;;4.60;99.90;;;;;;4888777;29;20467;-68
2023/04/02 12:17:20;;;;;;;3.33;1.67;;;4.60;99.90;;;;;;4886628;29;20056;-66
2023/04/02 12:19:50;;;;;;;6.45;1.63;;;4.60;99.90;;;;;;4886505;29;20044;-67
2023/04/02 12:22:31;;;;;;;9.23;2.35;;;4.60;99.90;;;;;;4887665;29;20059;-67
2023/04/02 12:25:03;;;;;;;7.43;1.58;;;4.50;99.90;;;;;;4886995;29;20550;-63
2023/04/02 12:27:30;;;;;;;7.75;1.85;;;4.30;99.90;;;;;;4884474;29;20491;-61
2023/04/02 12:30:20;;;;;;;2.25;0.98;;;4.30;99.90;;;;;;4887535;29;20050;-63
2023/04/02 12:32:48;;;;;;;5.43;1.80;;;4.30;99.90;;;;;;4886945;29;20364;-68
2023/04/02 12:35:34;;;;;;;5.07;1.15;;;4.40;99.90;;;;;;4867738;29;20056;-61
2023/04/02 12:38:01;;;;;;;3.20;1.13;;;4.40;99.90;;;;;;4884560;29;20080;-63
2023/04/02 12:40:28;;;;;;;5.78;1.83;;;4.50;99.90;;;;;;4874551;29;20048;-63
2023/04/02 12:42:55;;;;;;;6.90;0.93;;;4.60;99.90;;;;;;4886661;29;20143;-62
2023/04/02 12:45:32;;;;;;;6.65;1.20;;;4.60;99.90;;;;;;4885416;29;20147;-63
2023/04/02 12:48:03;;;;;;;8.32;1.70;;;4.60;99.90;;;;;;4887402;29;20156;-65
2023/04/02 12:50:32;;;;;;;3.50;1.25;;;4.60;99.90;;;;;;4887554;29;20063;-66
2023/04/02 12:53:00;;;;;;;7.43;1.67;;;4.60;99.90;;;;;;4889438;29;20505;-61
2023/04/02 12:55:27;;;;;;;4.68;1.65;;;4.70;99.90;;;;;;4884958;29;20123;-62
2023/04/02 12:57:58;;;;;;;2.67;0.80;;;4.70;99.90;;;;;;4887017;29;20139;-61
2023/04/02 13:00:29;;;;;;;8.00;1.80;;;4.60;99.90;;;;;;4887275;29;20052;-66
2023/04/02 13:03:04;;;;;;;1.65;0.65;;;4.50;99.90;;;;;;4886561;29;20670;-61
2023/04/02 13:05:33;;;;;;;3.65;0.73;;;4.50;99.90;;;;;;4885345;29;20116;-64
2023/04/02 13:08:00;;;;;;;8.13;1.35;;;4.60;99.90;;;;;;4886938;29;20052;-63
2023/04/02 13:10:27;;;;;;;4.75;0.85;;;4.60;99.90;;;;;;4887450;29;20132;-61
2023/04/02 13:13:03;;;;;;;9.18;1.25;;;4.60;99.90;;;;;;4888461;29;20048;-63
2023/04/02 13:15:33;;;;;;;1.77;0.90;;;4.70;99.90;;;;;;4885185;29;20048;-63
2023/04/02 13:18:05;;;;;;;8.48;2.35;;;4.70;99.90;;;;;;4886288;29;20047;-63
2023/04/02 13:20:38;;;;;;;9.05;1.13;;;4.80;99.90;;;;;;4886152;29;20499;-64
2023/04/02 13:23:38;;;;;;;5.50;1.30;;;4.80;99.90;;;;;;4886724;29;20080;-65
2023/04/02 13:26:07;;;;;;;10.20;1.65;;;4.80;99.90;;;;;;4815509;29;20403;-61
2023/04/02 13:28:34;;;;;;;3.40;0.93;;;4.70;99.90;;;;;;4886680;29;20116;-66
2023/04/02 13:31:01;;;;;;;2.78;1.48;;;4.70;99.90;;;;;;4886940;29;20054;-62
2023/04/02 13:33:28;;;;;;;4.20;1.10;;;4.60;99.90;;;;;;4884076;29;20152;-65
2023/04/02 13:35:55;;;;;;;9.02;1.20;;;4.80;99.90;;;;;;4885725;29;20462;-63
2023/04/02 13:38:22;;;;;;;5.57;2.10;;;4.80;99.90;;;;;;4886455;29;20271;-62
2023/04/02 13:40:50;;;;;;;8.82;1.92;;;4.90;99.90;;;;;;4886131;29;20418;-65
2023/04/02 13:43:19;;;;;;;13.48;2.53;;;4.90;99.90;;;;;;4886915;29;20135;-62
2023/04/02 13:45:51;;;;;;;3.10;0.82;;;5.00;99.90;;;;;;4885381;29;20542;-66